Time;durP1;ratioP1;P1;durP2;ratioP2;P2;SDS_P1;SDS_P2;PMS_P1;PMS_P2;Temp;Humidity;BMP_temperature;BMP_pressure;BME280_temperature;BME280_humidity;BME280_pressure;Samples;Min_cycle;Max_cycle;Signal;HPM_P1;HPM_P2
2022/04/19 00:00:38;;;;;;;15.38;9.20;;;154.00;1587.20;;;;;;4861496;29;20036;-60
2022/04/19 00:03:05;;;;;;;14.95;10.55;;;153.90;1587.20;;;;;;4861702;29;20035;-59
2022/04/19 00:05:33;;;;;;;18.30;10.50;;;153.90;1587.20;;;;;;4861385;29;20065;-59
2022/04/19 00:08:02;;;;;;;25.67;10.68;;;153.90;1587.20;;;;;;4861463;29;20053;-61
2022/04/19 00:10:28;;;;;;;18.85;10.25;;;153.90;1612.80;;;;;;4861691;29;20541;-60
2022/04/19 00:12:55;;;;;;;21.65;11.23;;;153.90;1587.20;;;;;;4861093;29;20033;-59
2022/04/19 00:15:22;;;;;;;25.80;12.93;;;153.90;1612.80;;;;;;4844769;29;20041;-60
2022/04/19 00:17:48;;;;;;;25.50;14.00;;;153.90;1587.20;;;;;;4861084;29;20108;-61
2022/04/19 00:20:14;;;;;;;27.00;14.27;;;153.80;1612.80;;;;;;4861392;29;20041;-60
2022/04/19 00:22:40;;;;;;;23.95;13.88;;;153.80;1612.80;;;;;;4861362;29;20026;-60
2022/04/19 00:25:07;;;;;;;28.95;15.95;;;153.80;1587.20;;;;;;4844373;29;20085;-61
2022/04/19 00:27:33;;;;;;;27.08;15.23;;;153.70;1638.40;;;;;;4861208;29;20030;-58
2022/04/19 00:29:59;;;;;;;25.67;14.65;;;153.70;1612.80;;;;;;4860927;29;20120;-58
2022/04/19 00:32:25;;;;;;;24.70;12.50;;;153.70;1612.80;;;;;;4861257;29;20026;-60
2022/04/19 00:34:51;;;;;;;18.35;12.20;;;153.70;1638.40;;;;;;4861361;29;20044;-59
2022/04/19 00:37:18;;;;;;;18.95;12.50;;;153.70;1612.80;;;;;;4861164;29;20061;-59
2022/04/19 00:39:44;;;;;;;20.65;12.57;;;153.60;1638.40;;;;;;4861371;29;20060;-60
2022/04/19 00:42:10;;;;;;;21.52;12.52;;;153.60;1638.40;;;;;;4861075;29;20449;-59
2022/04/19 00:44:39;;;;;;;19.38;11.27;;;128.90;1664.00;;;;;;4861246;29;20034;-59
2022/04/19 00:47:09;;;;;;;17.33;11.82;;;128.80;1664.00;;;;;;4861268;29;20033;-60
2022/04/19 00:49:40;;;;;;;19.98;12.18;;;128.90;1638.40;;;;;;4861240;29;20036;-59
2022/04/19 00:52:07;;;;;;;23.88;14.07;;;128.80;1664.00;;;;;;4861091;29;20061;-58
2022/04/19 00:54:33;;;;;;;24.27;14.65;;;128.80;1638.40;;;;;;4861330;29;20070;-61
2022/04/19 00:57:00;;;;;;;19.92;12.95;;;128.80;1638.40;;;;;;4861178;29;20093;-61
2022/04/19 00:59:26;;;;;;;17.08;11.75;;;128.80;1638.40;;;;;;4860779;29;20074;-59
2022/04/19 01:01:51;;;;;;;15.93;11.40;;;128.70;1638.40;;;;;;4861130;29;20034;-60
2022/04/19 01:04:18;;;;;;;17.55;12.52;;;128.80;1638.40;;;;;;4861110;29;20033;-58
2022/04/19 01:06:44;;;;;;;18.88;12.50;;;128.80;1664.00;;;;;;4861121;29;20549;-59
2022/04/19 01:09:10;;;;;;;18.00;12.13;;;128.70;1664.00;;;;;;4861345;29;20078;-61
2022/04/19 01:14:21;;;;;;;19.42;10.65;;;128.50;1664.00;;;;;;4861038;29;20402;-61
2022/04/19 01:16:48;;;;;;;19.08;11.68;;;128.40;1715.20;;;;;;4860858;29;20025;-59
2022/04/19 01:19:15;;;;;;;38.88;18.83;;;128.40;1664.00;;;;;;4861260;29;20057;-61
2022/04/19 01:21:48;;;;;;;33.67;17.67;;;128.30;1689.60;;;;;;4860576;29;20033;-59
2022/04/19 01:24:18;;;;;;;26.23;13.27;;;128.30;1664.00;;;;;;4860926;29;20026;-58
2022/04/19 01:26:45;;;;;;;18.10;10.02;;;128.20;1689.60;;;;;;4864201;29;20116;-59
2022/04/19 01:29:12;;;;;;;18.95;9.60;;;128.10;1715.20;;;;;;4864260;29;20113;-61
2022/04/19 01:31:40;;;;;;;15.07;9.25;;;128.20;1689.60;;;;;;4863953;29;20050;-60
2022/04/19 01:34:06;;;;;;;15.75;9.77;;;128.20;1689.60;;;;;;4864059;29;20078;-61
2022/04/19 01:36:38;;;;;;;15.00;10.10;;;128.20;1664.00;;;;;;4863474;29;20468;-60
2022/04/19 01:39:09;;;;;;;17.08;10.50;;;128.20;1689.60;;;;;;4863860;29;20025;-60
2022/04/19 01:41:37;;;;;;;15.52;10.48;;;128.20;1664.00;;;;;;4864059;29;20025;-59
2022/04/19 01:44:05;;;;;;;15.88;10.23;;;128.10;1689.60;;;;;;4847343;29;20032;-61
2022/04/19 01:46:33;;;;;;;15.50;9.70;;;128.00;1715.20;;;;;;4847489;29;20388;-59
2022/04/19 01:49:02;;;;;;;15.93;10.30;;;128.00;1715.20;;;;;;4863942;29;20077;-60
2022/04/19 01:51:28;;;;;;;16.88;10.07;;;128.10;1740.80;;;;;;4863559;29;20551;-59
2022/04/19 01:53:55;;;;;;;14.63;9.18;;;128.10;1689.60;;;;;;4863621;29;20056;-59
2022/04/19 01:56:21;;;;;;;13.43;8.98;;;128.10;1689.60;;;;;;4863672;29;20034;-61
2022/04/19 01:58:48;;;;;;;16.80;9.32;;;128.10;1740.80;;;;;;4863622;29;20030;-59
2022/04/19 02:01:14;;;;;;;16.27;9.05;;;128.10;1715.20;;;;;;4846815;29;20396;-59
2022/04/19 02:03:40;;;;;;;15.40;10.38;;;128.10;1715.20;;;;;;4863820;29;20029;-58
2022/04/19 02:06:08;;;;;;;17.88;9.80;;;128.20;1715.20;;;;;;4863578;29;20109;-61
2022/04/19 02:08:34;;;;;;;16.27;9.82;;;128.10;1689.60;;;;;;4863360;29;20030;-59
2022/04/19 02:11:00;;;;;;;15.75;11.55;;;128.20;1689.60;;;;;;4863816;29;20030;-61
2022/04/19 02:13:26;;;;;;;18.00;12.48;;;128.10;1689.60;;;;;;4863308;29;20056;-59
2022/04/19 02:15:52;;;;;;;19.27;13.02;;;128.10;1689.60;;;;;;4863255;29;20041;-59
2022/04/19 02:18:21;;;;;;;17.58;11.68;;;128.10;1689.60;;;;;;4863220;29;20472;-59
2022/04/19 02:20:47;;;;;;;17.67;10.75;;;128.10;1689.60;;;;;;4863061;29;20038;-59
2022/04/19 02:23:13;;;;;;;18.17;10.65;;;128.10;1689.60;;;;;;4863232;29;20060;-59
2022/04/19 02:25:39;;;;;;;15.88;10.07;;;128.10;1689.60;;;;;;4846516;29;20037;-58
2022/04/19 02:28:07;;;;;;;18.40;10.15;;;103.30;1715.20;;;;;;4862716;29;20026;-59
2022/04/19 02:30:33;;;;;;;14.48;9.95;;;103.30;1664.00;;;;;;4862941;29;20416;-61
2022/04/19 02:33:02;;;;;;;16.25;10.75;;;103.30;1689.60;;;;;;4863141;29;20026;-60
2022/04/19 02:35:28;;;;;;;22.20;10.88;;;128.00;1715.20;;;;;;4862940;29;20120;-59
2022/04/19 02:37:56;;;;;;;21.90;10.38;;;128.00;1689.60;;;;;;4863184;29;20029;-59
2022/04/19 02:40:22;;;;;;;19.17;11.15;;;103.30;1689.60;;;;;;4862915;29;20378;-58
2022/04/19 02:42:50;;;;;;;17.73;11.57;;;103.30;1664.00;;;;;;4862991;29;20030;-59
2022/04/19 02:45:16;;;;;;;20.90;11.30;;;128.00;1715.20;;;;;;4862826;29;20029;-61
2022/04/19 02:47:42;;;;;;;16.20;11.48;;;128.00;1689.60;;;;;;4862865;29;20048;-59
2022/04/19 02:50:08;;;;;;;21.77;11.65;;;128.00;1689.60;;;;;;4862441;29;20029;-60
2022/04/19 02:52:34;;;;;;;22.90;11.38;;;128.00;1689.60;;;;;;4862248;29;20037;-58
2022/04/19 02:55:00;;;;;;;32.53;17.20;;;128.00;1689.60;;;;;;4862456;29;20045;-61
2022/04/19 02:57:26;;;;;;;32.70;16.42;;;128.00;1740.80;;;;;;4862166;29;20026;-61
2022/04/19 02:59:53;;;;;;;31.35;17.50;;;103.30;1664.00;;;;;;4862235;29;20112;-59
2022/04/19 03:02:19;;;;;;;30.60;18.05;;;103.30;1664.00;;;;;;4862256;29;20053;-61
2022/04/19 03:04:45;;;;;;;27.55;16.40;;;103.30;1689.60;;;;;;4862100;29;20034;-59
2022/04/19 03:07:15;;;;;;;25.73;14.85;;;103.30;1638.40;;;;;;4862476;29;20036;-59
2022/04/19 03:09:41;;;;;;;27.73;14.55;;;103.20;1715.20;;;;;;4862257;29;20040;-59
2022/04/19 03:12:10;;;;;;;29.77;15.32;;;103.20;1664.00;;;;;;4862410;29;20022;-59
2022/04/19 03:14:37;;;;;;;32.80;17.08;;;103.20;1689.60;;;;;;4862269;29;20061;-59
2022/04/19 03:17:03;;;;;;;40.63;17.38;;;103.20;1689.60;;;;;;4862307;29;20073;-59
2022/04/19 03:19:29;;;;;;;42.25;18.00;;;103.20;1689.60;;;;;;4862160;29;20034;-58
2022/04/19 03:21:54;;;;;;;33.53;17.58;;;103.20;1689.60;;;;;;4862236;29;20033;-60
2022/04/19 03:29:48;;;;;;;29.95;17.48;;;103.20;1689.60;;;;;;4862212;29;20071;-60
2022/04/19 03:32:15;;;;;;;43.47;17.70;;;103.30;1689.60;;;;;;4841595;29;20081;-59
2022/04/19 03:34:42;;;;;;;36.92;17.58;;;103.20;1689.60;;;;;;4843371;29;20113;-61
2022/04/19 03:37:09;;;;;;;34.47;17.35;;;103.20;1689.60;;;;;;4843268;29;20094;-59
2022/04/19 03:39:35;;;;;;;38.05;18.17;;;103.20;1689.60;;;;;;4843406;29;20495;-60
2022/04/19 03:42:01;;;;;;;42.05;18.38;;;103.20;1689.60;;;;;;4843571;29;20038;-59
2022/04/19 03:44:26;;;;;;;40.20;18.63;;;103.20;1689.60;;;;;;4843258;29;20410;-58
2022/04/19 03:47:07;;;;;;;34.15;18.02;;;103.30;1689.60;;;;;;4842516;29;20034;-61
2022/04/19 03:49:34;;;;;;;38.92;18.20;;;103.30;1689.60;;;;;;4843309;29;20026;-59
2022/04/19 03:52:01;;;;;;;55.63;24.23;;;103.30;1689.60;;;;;;4843065;29;20082;-61
2022/04/19 03:54:27;;;;;;;57.85;28.40;;;103.30;1689.60;;;;;;4843314;29;20064;-59
2022/04/19 03:56:52;;;;;;;62.47;26.90;;;103.30;1689.60;;;;;;4842987;29;20053;-60
2022/04/19 03:59:18;;;;;;;66.90;28.08;;;103.30;1715.20;;;;;;4843051;29;20358;-59
2022/04/19 04:01:44;;;;;;;111.78;49.10;;;103.30;1689.60;;;;;;4843218;29;20034;-61
2022/04/19 04:04:10;;;;;;;128.15;66.75;;;103.30;1689.60;;;;;;4843011;29;20453;-59
2022/04/19 04:06:37;;;;;;;136.35;57.55;;;103.30;1689.60;;;;;;4843067;29;20026;-59
2022/04/19 04:09:04;;;;;;;153.07;67.35;;;103.30;1689.60;;;;;;4843209;29;20040;-60
2022/04/19 04:11:29;;;;;;;126.43;55.97;;;103.30;1689.60;;;;;;4843292;29;20029;-60
2022/04/19 04:13:55;;;;;;;81.45;39.00;;;103.30;1689.60;;;;;;4842545;29;20499;-58
2022/04/19 04:16:22;;;;;;;59.97;31.85;;;103.20;1689.60;;;;;;4843084;29;20540;-61
2022/04/19 04:18:48;;;;;;;146.00;76.03;;;103.20;1715.20;;;;;;4843018;29;20034;-59
2022/04/19 04:21:13;;;;;;;62.78;35.58;;;103.30;1715.20;;;;;;4843033;29;20388;-59
2022/04/19 04:23:39;;;;;;;56.30;27.63;;;103.20;1689.60;;;;;;4843191;29;20026;-59
2022/04/19 04:26:05;;;;;;;61.55;29.23;;;103.20;1715.20;;;;;;4843042;29;20037;-61
2022/04/19 04:28:30;;;;;;;58.50;29.95;;;103.30;1689.60;;;;;;4842968;29;20040;-61
2022/04/19 04:30:56;;;;;;;61.15;32.65;;;103.30;1715.20;;;;;;4851009;29;20457;-59
2022/04/19 04:33:22;;;;;;;89.07;48.50;;;103.30;1689.60;;;;;;4861399;29;20180;-59
2022/04/19 04:35:48;;;;;;;259.75;155.70;;;103.30;1689.60;;;;;;4861100;29;20045;-61
2022/04/19 04:38:14;;;;;;;284.45;167.80;;;128.00;1715.20;;;;;;4861290;29;20078;-59
2022/04/19 04:40:40;;;;;;;325.90;186.05;;;128.00;1740.80;;;;;;4861365;29;20033;-59
2022/04/19 04:43:05;;;;;;;219.30;133.43;;;128.00;1715.20;;;;;;4860610;29;20369;-58
2022/04/19 04:45:31;;;;;;;122.38;59.45;;;128.10;1715.20;;;;;;4861287;29;20044;-58
2022/04/19 04:50:41;;;;;;;102.18;47.00;;;128.20;1715.20;;;;;;4861245;29;20056;-59
2022/04/19 04:53:07;;;;;;;103.43;50.30;;;128.30;1715.20;;;;;;4861202;29;20037;-59
2022/04/19 04:55:32;;;;;;;108.70;50.78;;;128.40;1740.80;;;;;;4860866;29;20037;-60
2022/04/19 04:58:01;;;;;;;101.03;45.33;;;128.40;1740.80;;;;;;4861008;29;20047;-59
2022/04/19 05:00:27;;;;;;;96.03;46.78;;;128.50;1740.80;;;;;;4863085;29;20126;-61
2022/04/19 05:02:54;;;;;;;90.80;42.35;;;128.60;1740.80;;;;;;4864778;29;20033;-61
2022/04/19 05:05:20;;;;;;;96.43;45.63;;;128.60;1766.40;;;;;;4864437;29;20030;-59
2022/04/19 05:07:46;;;;;;;99.60;47.28;;;128.60;1766.40;;;;;;4864715;29;20029;-58
2022/04/19 05:10:13;;;;;;;108.90;52.28;;;128.70;1766.40;;;;;;4864617;29;20433;-60
2022/04/19 05:12:38;;;;;;;122.60;58.83;;;128.60;1792.00;;;;;;4864440;29;20376;-61
2022/04/19 05:15:05;;;;;;;199.13;96.55;;;128.60;1817.60;;;;;;4864243;29;20033;-61
2022/04/19 05:17:31;;;;;;;131.90;69.20;;;128.60;1843.20;;;;;;4864301;29;20041;-61
2022/04/19 05:19:58;;;;;;;110.28;53.20;;;128.20;1894.40;;;;;;4864224;29;20033;-58
2022/04/19 05:22:24;;;;;;;113.95;51.10;;;128.10;1920.00;;;;;;4864137;29;20030;-61
2022/04/19 05:24:49;;;;;;;99.90;49.70;;;128.30;1945.60;;;;;;4846906;29;20033;-58
2022/04/19 05:27:15;;;;;;;95.72;46.90;;;128.20;1971.20;;;;;;4864137;29;20036;-61
2022/04/19 05:29:41;;;;;;;155.63;82.20;;;128.40;1945.60;;;;;;4864283;29;20030;-59
2022/04/19 05:32:07;;;;;;;133.20;67.78;;;128.50;1971.20;;;;;;4843509;29;20509;-58
2022/04/19 05:34:33;;;;;;;175.45;98.30;;;128.70;1945.60;;;;;;4845552;29;20473;-59
2022/04/19 05:36:59;;;;;;;190.55;111.68;;;128.90;1945.60;;;;;;4845444;29;20069;-61
2022/04/19 05:39:24;;;;;;;107.25;58.85;;;153.70;1945.60;;;;;;4845770;29;20029;-58
2022/04/19 05:41:50;;;;;;;94.60;45.00;;;153.90;1920.00;;;;;;4845552;29;20033;-60
2022/04/19 05:44:16;;;;;;;79.03;42.30;;;154.10;1920.00;;;;;;4835808;29;20025;-60
2022/04/19 05:46:41;;;;;;;84.93;38.92;;;154.30;1894.40;;;;;;4835302;29;20143;-61
2022/04/19 05:49:07;;;;;;;67.13;34.88;;;154.50;1868.80;;;;;;4833516;29;20030;-60
2022/04/19 05:51:34;;;;;;;100.20;58.72;;;179.30;1843.20;;;;;;4833850;29;20060;-61
2022/04/19 05:54:00;;;;;;;65.75;40.60;;;179.50;1817.60;;;;;;4835131;29;20748;-58
2022/04/19 05:56:26;;;;;;;43.80;25.80;;;179.50;1792.00;;;;;;4833470;29;20113;-59
2022/04/19 05:58:53;;;;;;;57.40;34.28;;;179.60;1817.60;;;;;;4835281;29;20112;-61
2022/04/19 06:01:18;;;;;;;46.90;31.40;;;179.80;1766.40;;;;;;4834796;29;20042;-59
2022/04/19 06:06:29;;;;;;;45.47;29.15;;;180.10;1740.80;;;;;;4832929;29;20041;-59
2022/04/19 06:08:55;;;;;;;160.15;99.82;;;204.80;1715.20;;;;;;4832518;29;20030;-59
2022/04/19 06:11:21;;;;;;;96.95;66.80;;;204.90;1715.20;;;;;;4832544;29;20038;-60
2022/04/19 06:13:47;;;;;;;37.65;24.75;;;204.90;1689.60;;;;;;4835399;29;20441;-59
2022/04/19 06:16:13;;;;;;;42.08;28.73;;;205.00;1689.60;;;;;;4834088;29;20057;-60
2022/04/19 06:18:38;;;;;;;29.98;20.02;;;205.20;1664.00;;;;;;4833972;29;20034;-60
2022/04/19 06:21:05;;;;;;;27.38;17.88;;;205.30;1638.40;;;;;;4835168;29;20034;-59
2022/04/19 06:23:32;;;;;;;19.73;12.98;;;205.30;1689.60;;;;;;4828669;29;20382;-59
2022/04/19 06:25:58;;;;;;;20.45;11.98;;;205.40;1638.40;;;;;;4826878;29;20038;-58
2022/04/19 06:28:24;;;;;;;20.42;14.13;;;205.60;1612.80;;;;;;4826484;29;20497;-59
2022/04/19 06:30:49;;;;;;;26.25;15.57;;;205.70;1612.80;;;;;;4840800;29;20144;-60
2022/04/19 06:33:15;;;;;;;20.33;12.93;;;230.40;1638.40;;;;;;4855802;29;20090;-58
2022/04/19 06:35:41;;;;;;;14.80;10.07;;;230.40;1612.80;;;;;;4853652;29;20041;-61
2022/04/19 06:38:08;;;;;;;17.30;11.25;;;230.60;1561.60;;;;;;4852225;29;20086;-58
2022/04/19 06:40:34;;;;;;;17.65;10.70;;;230.60;1561.60;;;;;;4853380;29;20021;-60
2022/04/19 06:43:00;;;;;;;95.40;29.85;;;230.60;1561.60;;;;;;4844480;29;20104;-59
2022/04/19 06:45:27;;;;;;;37.33;15.75;;;230.80;1561.60;;;;;;4854065;29;20053;-58
2022/04/19 06:47:59;;;;;;;51.03;28.45;;;230.90;1561.60;;;;;;4857864;29;20022;-61
2022/04/19 06:50:25;;;;;;;38.97;21.23;;;231.00;1536.00;;;;;;4849570;29;20090;-58
2022/04/19 06:52:54;;;;;;;34.50;16.25;;;231.10;1484.80;;;;;;4850622;29;20568;-59
2022/04/19 06:55:20;;;;;;;211.57;74.50;;;231.10;1484.80;;;;;;4843848;29;20460;-61
2022/04/19 06:57:49;;;;;;;102.13;39.30;;;231.30;1484.80;;;;;;4843881;29;20109;-60
2022/04/19 07:00:16;;;;;;;79.47;37.50;;;256.00;1433.60;;;;;;4844152;29;20052;-61
2022/04/19 07:02:44;;;;;;;106.90;51.35;;;256.30;1408.00;;;;;;4850276;29;20061;-59
2022/04/19 07:05:10;;;;;;;27.23;15.55;;;256.50;1433.60;;;;;;4854474;29;20384;-60
2022/04/19 07:07:39;;;;;;;40.22;23.15;;;256.70;1408.00;;;;;;4844866;29;20034;-59
2022/04/19 07:10:06;;;;;;;30.70;16.95;;;281.60;1382.40;;;;;;4836597;29;20034;-61
2022/04/19 07:12:32;;;;;;;18.30;10.45;;;281.80;1382.40;;;;;;4848330;29;20380;-60
2022/04/19 07:14:58;;;;;;;32.45;13.48;;;282.10;1356.80;;;;;;4853810;29;20048;-60
2022/04/19 07:17:24;;;;;;;22.67;10.43;;;282.20;1331.20;;;;;;4856629;29;20025;-60
2022/04/19 07:28:03;;;;;;;14.63;7.83;;;307.70;1254.40;;;;;;4852857;29;20064;-59
2022/04/19 07:30:29;;;;;;;17.08;7.18;;;307.90;1228.80;;;;;;4852228;29;21450;-60
2022/04/19 07:32:58;;;;;;;25.00;14.32;;;308.10;1254.40;;;;;;4845409;29;20041;-60
2022/04/19 07:35:24;;;;;;;41.60;22.77;;;332.90;1254.40;;;;;;4843424;29;20038;-59
2022/04/19 07:37:51;;;;;;;29.30;18.50;;;333.00;1203.20;;;;;;4843356;29;20037;-61
2022/04/19 07:40:17;;;;;;;54.78;31.15;;;333.10;1177.60;;;;;;4843597;29;20038;-60
2022/04/19 07:42:42;;;;;;;44.17;24.63;;;333.30;1126.40;;;;;;4850832;29;20048;-60
2022/04/19 07:45:09;;;;;;;55.45;24.85;;;333.40;1100.80;;;;;;4852509;29;20476;-60
2022/04/19 07:47:35;;;;;;;14.52;6.13;;;333.50;1152.00;;;;;;4851154;29;20052;-62
2022/04/19 07:50:01;;;;;;;14.52;7.85;;;333.30;1126.40;;;;;;4852366;29;20033;-61
2022/04/19 07:52:27;;;;;;;20.77;10.98;;;333.60;1126.40;;;;;;4852300;29;20026;-62
2022/04/19 07:54:55;;;;;;;19.05;9.93;;;358.40;1100.80;;;;;;4851066;29;20121;-61
2022/04/19 07:57:21;;;;;;;29.00;16.00;;;358.50;1075.20;;;;;;4852275;29;20165;-61
2022/04/19 07:59:51;;;;;;;16.90;7.47;;;358.50;1075.20;;;;;;4852107;29;20524;-60
2022/04/19 08:02:17;;;;;;;25.58;10.68;;;358.70;1075.20;;;;;;4848579;29;20502;-61
2022/04/19 08:04:43;;;;;;;23.33;10.45;;;358.70;1100.80;;;;;;4834994;29;20030;-61
2022/04/19 08:07:08;;;;;;;52.75;20.73;;;358.90;1075.20;;;;;;4852396;29;20030;-60
2022/04/19 08:09:34;;;;;;;22.10;9.32;;;359.00;1075.20;;;;;;4850367;29;20075;-60
2022/04/19 08:12:00;;;;;;;34.13;13.55;;;359.10;1049.60;;;;;;4852362;29;20030;-59
2022/04/19 08:14:25;;;;;;;60.88;22.27;;;359.20;1024.00;;;;;;4851950;29;20030;-59
2022/04/19 08:16:51;;;;;;;24.60;10.07;;;359.30;1024.00;;;;;;4850785;29;20388;-60
2022/04/19 08:19:17;;;;;;;10.77;5.65;;;359.00;998.40;;;;;;4831464;29;20103;-59
2022/04/19 08:21:42;;;;;;;28.38;13.07;;;359.10;1024.00;;;;;;4851491;29;20549;-61
2022/04/19 08:24:08;;;;;;;8.95;5.68;;;359.10;1024.00;;;;;;4850074;29;20503;-59
2022/04/19 08:26:35;;;;;;;29.20;13.73;;;358.70;1049.60;;;;;;4842183;29;20512;-61
2022/04/19 08:29:00;;;;;;;51.20;26.08;;;358.80;1049.60;;;;;;4846540;29;20053;-59
2022/04/19 08:31:27;;;;;;;24.42;13.00;;;358.90;998.40;;;;;;4850579;29;20500;-61
2022/04/19 08:33:53;;;;;;;26.92;13.82;;;359.10;998.40;;;;;;4844173;29;20034;-61
2022/04/19 08:36:19;;;;;;;35.25;18.08;;;359.30;998.40;;;;;;4846405;29;20046;-61
2022/04/19 08:38:47;;;;;;;31.13;15.82;;;384.00;998.40;;;;;;4828976;29;20122;-61
2022/04/19 08:41:15;;;;;;;23.48;13.75;;;384.20;947.20;;;;;;4846687;29;20034;-62
2022/04/19 08:43:41;;;;;;;22.52;10.63;;;384.40;947.20;;;;;;4846390;29;20029;-61
2022/04/19 08:46:07;;;;;;;10.38;6.57;;;384.60;947.20;;;;;;4846404;29;20424;-61
2022/04/19 08:48:38;;;;;;;6.30;4.45;;;384.80;921.60;;;;;;4846588;29;20052;-61
2022/04/19 08:51:07;;;;;;;15.23;9.38;;;384.70;896.00;;;;;;4846180;29;20041;-60
2022/04/19 08:59:04;;;;;;;39.33;19.20;;;384.20;896.00;;;;;;4848478;29;20037;-59
2022/04/19 09:01:30;;;;;;;20.02;12.82;;;384.50;921.60;;;;;;4853887;29;20040;-60
2022/04/19 09:03:56;;;;;;;10.00;6.82;;;384.80;921.60;;;;;;4853071;29;20107;-61
2022/04/19 09:06:41;;;;;;;22.42;13.88;;;409.60;921.60;;;;;;4854861;29;20460;-60
2022/04/19 09:09:14;;;;;;;9.35;4.43;;;409.60;921.60;;;;;;4835534;29;20033;-62
2022/04/19 09:11:40;;;;;;;7.00;4.28;;;409.90;844.80;;;;;;4846258;29;20091;-62
2022/04/19 09:14:07;;;;;;;9.38;5.70;;;410.10;844.80;;;;;;4846156;29;20030;-61
2022/04/19 09:16:32;;;;;;;12.45;5.68;;;409.80;844.80;;;;;;4846002;29;20044;-61
2022/04/19 09:18:58;;;;;;;91.70;33.67;;;410.00;819.20;;;;;;4845679;29;20414;-60
2022/04/19 09:21:39;;;;;;;21.67;11.15;;;409.90;793.60;;;;;;4846019;29;20366;-61
2022/04/19 09:24:18;;;;;;;7.38;4.47;;;409.70;844.80;;;;;;4846056;29;20075;-61
2022/04/19 09:26:45;;;;;;;7.95;5.35;;;409.60;844.80;;;;;;4845653;29;20030;-61
2022/04/19 09:29:26;;;;;;;9.45;5.32;;;384.70;870.40;;;;;;4845680;29;20022;-61
2022/04/19 09:31:58;;;;;;;6.55;3.88;;;384.50;870.40;;;;;;4845468;29;20487;-61
2022/04/19 09:34:33;;;;;;;16.70;4.75;;;384.20;896.00;;;;;;4845813;29;20033;-62
2022/04/19 09:37:10;;;;;;;9.57;5.47;;;384.10;921.60;;;;;;4845396;29;20046;-61
2022/04/19 09:39:37;;;;;;;13.45;5.35;;;359.00;947.20;;;;;;4845460;29;20120;-61
2022/04/19 09:42:07;;;;;;;14.27;7.47;;;358.90;972.80;;;;;;4828993;29;20037;-60
2022/04/19 09:44:41;;;;;;;15.98;7.50;;;333.70;1049.60;;;;;;4846137;29;20488;-61
2022/04/19 09:47:09;;;;;;;13.13;8.25;;;333.60;1075.20;;;;;;4845031;29;20030;-60
2022/04/19 09:49:49;;;;;;;12.63;6.18;;;333.30;1100.80;;;;;;4845487;29;20034;-61
2022/04/19 09:52:23;;;;;;;15.27;6.80;;;333.30;1100.80;;;;;;4828779;29;20106;-61
2022/04/19 09:55:08;;;;;;;13.10;6.93;;;333.40;1075.20;;;;;;4845326;29;20026;-61
2022/04/19 09:57:38;;;;;;;16.08;9.00;;;333.00;1228.80;;;;;;4845333;29;20473;-61
2022/04/19 10:00:09;;;;;;;54.40;29.75;;;332.80;1254.40;;;;;;4844935;29;20041;-61
2022/04/19 10:08:22;;;;;;;30.17;15.13;;;307.70;1331.20;;;;;;4845505;29;20087;-61
2022/04/19 10:10:49;;;;;;;11.05;7.32;;;307.40;1356.80;;;;;;4845157;29;20058;-61
2022/04/19 10:13:25;;;;;;;8.52;5.97;;;307.50;1356.80;;;;;;4845104;29;20034;-60
2022/04/19 10:15:51;;;;;;;12.25;7.72;;;307.50;1382.40;;;;;;4844976;29;20042;-61
2022/04/19 10:18:17;;;;;;;10.63;6.55;;;307.40;1408.00;;;;;;4845615;29;20355;-60
2022/04/19 10:20:54;;;;;;;17.35;6.22;;;307.40;1356.80;;;;;;4828321;29;20124;-60
2022/04/19 10:23:20;;;;;;;16.52;5.63;;;307.40;1382.40;;;;;;4844811;29;20054;-61
2022/04/19 10:25:48;;;;;;;10.68;6.13;;;307.50;1382.40;;;;;;4845260;29;20484;-61
2022/04/19 10:28:30;;;;;;;9.23;5.85;;;307.40;1382.40;;;;;;4844707;29;20026;-62
2022/04/19 10:30:58;;;;;;;10.60;5.55;;;307.40;1408.00;;;;;;4844467;29;20053;-61
2022/04/19 10:33:41;;;;;;;8.77;5.82;;;307.50;1382.40;;;;;;4844386;29;20045;-61
2022/04/19 10:36:21;;;;;;;14.80;6.80;;;307.30;1433.60;;;;;;4828007;29;20054;-61
2022/04/19 10:39:08;;;;;;;15.95;7.18;;;307.30;1433.60;;;;;;4844437;29;20487;-60
2022/04/19 10:41:55;;;;;;;11.63;7.30;;;307.20;1433.60;;;;;;4844409;29;20397;-61
2022/04/19 10:44:25;;;;;;;14.88;6.57;;;307.30;1433.60;;;;;;4827986;29;20038;-62
2022/04/19 10:47:05;;;;;;;13.90;7.82;;;307.40;1408.00;;;;;;4851158;29;20034;-61
2022/04/19 10:49:31;;;;;;;16.80;7.32;;;307.60;1408.00;;;;;;4852372;29;20042;-61
2022/04/19 10:52:00;;;;;;;34.17;17.90;;;307.60;1382.40;;;;;;4851412;29;20022;-61
2022/04/19 10:55:06;;;;;;;73.47;39.17;;;307.70;1382.40;;;;;;4851891;29;20037;-60
2022/04/19 11:00:53;;;;;;;63.28;50.95;;;307.60;1382.40;;;;;;4851923;29;20102;-60
2022/04/19 11:03:29;;;;;;;32.10;22.58;;;307.80;1356.80;;;;;;4852480;29;20456;-61
2022/04/19 11:05:59;;;;;;;19.25;11.27;;;308.00;1331.20;;;;;;4853143;29;20064;-61
2022/04/19 11:08:25;;;;;;;13.02;11.07;;;332.80;1331.20;;;;;;4851982;29;20473;-62
2022/04/19 11:10:56;;;;;;;8.93;4.88;;;333.00;1331.20;;;;;;4851274;29;20103;-61
2022/04/19 11:13:22;;;;;;;10.45;6.43;;;333.10;1254.40;;;;;;4849415;29;20026;-62
2022/04/19 11:16:13;;;;;;;12.70;4.57;;;333.10;1254.40;;;;;;4851242;29;20110;-65
2022/04/19 11:18:41;;;;;;;10.52;8.25;;;333.30;1203.20;;;;;;4852535;29;20026;-62
2022/04/19 11:21:08;;;;;;;23.27;15.32;;;333.50;1203.20;;;;;;4850217;29;20025;-64
2022/04/19 11:23:48;;;;;;;10.85;5.20;;;333.60;1152.00;;;;;;4852761;29;20028;-62
2022/04/19 11:26:33;;;;;;;4.90;3.72;;;358.40;1152.00;;;;;;4850390;29;20090;-62
2022/04/19 11:29:08;;;;;;;5.72;3.78;;;358.60;1049.60;;;;;;4852491;29;20474;-62
2022/04/19 11:31:54;;;;;;;4.90;3.78;;;358.60;998.40;;;;;;4852358;29;20089;-62
2022/04/19 11:34:20;;;;;;;7.65;4.32;;;358.90;1024.00;;;;;;4795557;29;20042;-62
2022/04/19 11:36:46;;;;;;;9.52;3.30;;;359.00;1024.00;;;;;;4794207;29;20047;-62
2022/04/19 11:46:43;;;;;;;8.23;3.30;;;359.30;947.20;;;;;;4793988;29;20114;-62
2022/04/19 11:47:48;;;;;;;10.93;4.45;;;359.00;998.40;;;;;;4795058;29;20042;-62
2022/04/19 11:50:35;;;;;;;16.02;3.97;;;358.90;972.80;;;;;;4795178;29;20038;-62
2022/04/19 11:53:01;;;;;;;6.07;3.17;;;359.20;947.20;;;;;;4791213;29;20031;-62
2022/04/19 11:55:27;;;;;;;7.20;3.67;;;384.00;947.20;;;;;;4795080;29;20176;-62
2022/04/19 11:58:09;;;;;;;10.90;3.53;;;359.20;972.80;;;;;;4794069;29;20394;-62
2022/04/19 12:00:36;;;;;;;11.95;3.58;;;359.20;972.80;;;;;;4794913;29;20145;-62
2022/04/19 12:03:21;;;;;;;11.95;4.18;;;359.30;947.20;;;;;;4793534;29;20039;-62
2022/04/19 12:05:47;;;;;;;8.32;3.85;;;359.30;947.20;;;;;;4791982;29;20051;-62
2022/04/19 12:08:28;;;;;;;11.52;4.03;;;359.30;947.20;;;;;;4793469;29;20019;-62
2022/04/19 12:10:54;;;;;;;22.13;4.32;;;359.30;972.80;;;;;;4806581;29;20076;-62
2022/04/19 12:13:20;;;;;;;7.22;3.88;;;359.30;972.80;;;;;;4847505;29;20032;-62
2022/04/19 12:15:46;;;;;;;13.43;5.07;;;359.10;998.40;;;;;;4852764;29;20046;-63
2022/04/19 12:18:29;;;;;;;5.70;3.70;;;358.90;998.40;;;;;;4837036;29;20030;-63
2022/04/19 12:20:55;;;;;;;9.98;4.57;;;358.70;998.40;;;;;;4851009;29;20412;-62
2022/04/19 12:23:21;;;;;;;11.00;4.18;;;358.60;1024.00;;;;;;4861550;29;20044;-63
2022/04/19 12:26:07;;;;;;;13.63;5.57;;;358.70;1024.00;;;;;;4861546;29;20391;-62
2022/04/19 12:28:45;;;;;;;16.17;6.18;;;358.60;1024.00;;;;;;4857210;29;20030;-62
2022/04/19 12:31:55;;;;;;;12.70;5.53;;;358.50;1024.00;;;;;;4852045;29;20052;-62
2022/04/19 12:34:37;;;;;;;11.57;4.25;;;358.50;1024.00;;;;;;4766102;30;20035;-62
2022/04/19 12:37:08;;;;;;;16.00;4.32;;;333.70;1024.00;;;;;;4766296;30;20043;-62
2022/04/19 12:39:34;;;;;;;10.02;5.72;;;333.70;1024.00;;;;;;4750490;30;20039;-62
2022/04/19 12:42:07;;;;;;;9.50;5.35;;;333.60;1049.60;;;;;;4767238;30;20078;-63
2022/04/19 12:44:37;;;;;;;6.30;3.80;;;333.70;1049.60;;;;;;4764793;30;20028;-62
2022/04/19 12:47:16;;;;;;;6.93;4.38;;;333.50;1075.20;;;;;;4767412;30;20044;-62
2022/04/19 12:49:45;;;;;;;6.38;3.90;;;333.70;1075.20;;;;;;4767254;30;20115;-62
2022/04/19 12:52:11;;;;;;;10.30;4.97;;;333.60;1075.20;;;;;;4766658;30;20060;-62